Time;durP1;ratioP1;P1;durP2;ratioP2;P2;SDS_P1;SDS_P2;PMS_P1;PMS_P2;Temp;Humidity;BMP_temperature;BMP_pressure;BME280_temperature;BME280_humidity;BME280_pressure;Samples;Min_cycle;Max_cycle;Signal;HPM_P1;HPM_P2
2024/04/21 00:01:08;;;;;;;;;;;;;;;3.89;78.03;100251.13;130161;1265;108650;-77
2024/04/21 00:04:32;;;;;;;;;;;;;;;3.93;78.10;100251.06;130099;1259;110046;-77
2024/04/21 00:07:36;;;;;;;;;;;;;;;3.87;77.91;100255.19;130013;1263;106684;-77
2024/04/21 00:10:39;;;;;;;;;;;;;;;3.78;77.78;100258.83;130084;1264;107763;-77
2024/04/21 00:13:43;;;;;;;;;;;;;;;3.69;77.45;100264.52;130095;1264;107039;-77
2024/04/21 00:16:46;;;;;;;;;;;;;;;3.66;77.14;100265.67;130070;1261;107515;-77
2024/04/21 00:19:50;;;;;;;;;;;;;;;3.64;77.12;100268.95;130078;1274;107754;-77
2024/04/21 00:22:54;;;;;;;;;;;;;;;3.66;77.23;100268.98;130149;1265;107667;-77
2024/04/21 00:25:58;;;;;;;;;;;;;;;3.72;77.24;100277.73;130081;1263;108514;-77
2024/04/21 00:29:01;;;;;;;;;;;;;;;3.72;76.97;100275.59;130081;1273;106862;-78
2024/04/21 00:32:06;;;;;;;;;;;;;;;3.79;77.08;100275.83;130047;1265;107402;-77
2024/04/21 00:35:09;;;;;;;;;;;;;;;3.83;76.70;100282.38;130078;1274;106711;-77
2024/04/21 00:38:13;;;;;;;;;;;;;;;3.83;76.61;100276.59;130081;1265;107037;-77
2024/04/21 00:41:17;;;;;;;;;;;;;;;3.84;76.61;100277.23;130121;1264;106347;-77
2024/04/21 00:44:21;;;;;;;;;;;;;;;3.78;76.31;100282.55;130077;1259;106284;-76
2024/04/21 00:47:24;;;;;;;;;;;;;;;3.74;76.45;100275.47;130075;1265;107119;-76
2024/04/21 00:50:28;;;;;;;;;;;;;;;3.72;76.46;100284.38;130046;1263;107122;-77
2024/04/21 00:53:32;;;;;;;;;;;;;;;3.65;76.18;100281.92;130133;1259;107328;-77
2024/04/21 00:56:36;;;;;;;;;;;;;;;3.61;76.53;100283.43;130079;1274;107655;-79
2024/04/21 00:59:41;;;;;;;;;;;;;;;3.60;76.41;100280.33;130109;1263;107811;-78
2024/04/21 01:02:44;;;;;;;;;;;;;;;3.57;76.29;100283.91;130137;1265;106387;-77
2024/04/21 01:05:48;;;;;;;;;;;;;;;3.54;76.36;100285.27;130136;1265;107493;-76
2024/04/21 01:08:52;;;;;;;;;;;;;;;3.58;76.21;100287.71;130111;1265;106922;-77
2024/04/21 01:11:56;;;;;;;;;;;;;;;3.58;75.63;100283.98;130128;1265;108142;-77
2024/04/21 01:15:00;;;;;;;;;;;;;;;3.58;75.76;100287.48;130165;1265;107152;-77
2024/04/21 01:18:04;;;;;;;;;;;;;;;3.62;76.08;100285.09;130155;1264;106550;-79
2024/04/21 01:21:08;;;;;;;;;;;;;;;3.68;75.47;100284.66;130149;1259;107401;-77
2024/04/21 01:24:11;;;;;;;;;;;;;;;3.67;75.58;100284.56;130137;1265;106029;-76
2024/04/21 01:27:15;;;;;;;;;;;;;;;3.69;75.90;100282.53;130150;1263;106689;-77
2024/04/21 01:30:19;;;;;;;;;;;;;;;3.64;74.91;100283.41;130160;1265;106318;-77
2024/04/21 01:33:22;;;;;;;;;;;;;;;3.59;75.34;100282.52;130124;1259;108464;-77
2024/04/21 01:36:26;;;;;;;;;;;;;;;3.58;75.53;100285.55;130148;1265;106747;-77
2024/04/21 01:39:29;;;;;;;;;;;;;;;3.59;75.38;100288.67;130081;1264;107811;-77
2024/04/21 01:42:33;;;;;;;;;;;;;;;3.61;75.42;100286.25;130116;1265;108627;-77
2024/04/21 01:45:37;;;;;;;;;;;;;;;3.61;75.34;100287.96;130098;1263;107658;-77
2024/04/21 01:48:40;;;;;;;;;;;;;;;3.59;75.21;100290.46;130153;1259;107759;-77
2024/04/21 01:51:44;;;;;;;;;;;;;;;3.51;75.23;100292.86;130139;1263;108794;-77
2024/04/21 01:54:47;;;;;;;;;;;;;;;3.47;75.14;100299.52;130122;1260;108712;-78
2024/04/21 01:57:51;;;;;;;;;;;;;;;3.41;75.19;100305.39;130108;1265;106478;-77
2024/04/21 02:00:54;;;;;;;;;;;;;;;3.39;75.09;100306.58;130156;1263;107632;-77
2024/04/21 02:03:58;;;;;;;;;;;;;;;3.32;75.23;100303.69;130099;1266;108800;-76
2024/04/21 02:07:02;;;;;;;;;;;;;;;3.36;75.49;100303.12;130110;1260;108723;-77
2024/04/21 02:10:06;;;;;;;;;;;;;;;3.40;75.39;100307.02;130153;1265;107595;-77
2024/04/21 02:13:10;;;;;;;;;;;;;;;3.46;75.09;100305.90;130117;1259;106459;-77
2024/04/21 02:16:13;;;;;;;;;;;;;;;3.51;75.16;100297.63;130079;1264;106397;-79
2024/04/21 02:19:17;;;;;;;;;;;;;;;3.57;75.02;100294.98;130095;1265;105524;-77
2024/04/21 02:22:21;;;;;;;;;;;;;;;3.59;74.98;100294.48;129917;1263;106569;-77
2024/04/21 02:25:24;;;;;;;;;;;;;;;3.63;74.75;100298.06;129985;1265;107716;-78
2024/04/21 02:28:28;;;;;;;;;;;;;;;3.58;74.53;100303.33;130145;1265;106611;-78
2024/04/21 02:31:32;;;;;;;;;;;;;;;3.49;74.79;100302.52;130115;1265;107672;-77
2024/04/21 02:34:36;;;;;;;;;;;;;;;3.46;74.88;100302.59;130138;1259;107440;-78
2024/04/21 02:37:39;;;;;;;;;;;;;;;3.42;74.91;100299.70;130098;1265;108586;-78
2024/04/21 02:40:43;;;;;;;;;;;;;;;3.38;75.09;100298.37;130152;1265;107639;-78
2024/04/21 02:43:47;;;;;;;;;;;;;;;3.34;75.23;100298.63;130089;1263;108377;-77
2024/04/21 02:46:50;;;;;;;;;;;;;;;3.31;75.35;100297.25;130010;1266;131757;-77
2024/04/21 02:49:54;;;;;;;;;;;;;;;3.26;75.27;100300.63;130172;1263;108728;-78
2024/04/21 02:52:57;;;;;;;;;;;;;;;3.22;75.48;100303.20;130109;1265;107649;-78
2024/04/21 02:56:01;;;;;;;;;;;;;;;3.19;75.43;100307.59;130122;1265;108703;-78
2024/04/21 02:59:04;;;;;;;;;;;;;;;3.14;75.44;100309.15;130055;1273;107747;-78
2024/04/21 03:02:08;;;;;;;;;;;;;;;3.14;75.71;100306.85;130107;1260;107811;-79
2024/04/21 03:05:11;;;;;;;;;;;;;;;3.17;75.69;100308.25;130075;1265;108770;-78
2024/04/21 03:08:15;;;;;;;;;;;;;;;3.24;75.75;100313.38;130204;1272;108751;-78
2024/04/21 03:11:19;;;;;;;;;;;;;;;3.28;75.61;100312.43;130050;1263;107148;-77
2024/04/21 03:14:22;;;;;;;;;;;;;;;3.29;75.72;100311.64;130118;1273;108730;-78
2024/04/21 03:17:26;;;;;;;;;;;;;;;3.33;75.70;100313.69;130135;1263;106625;-78
2024/04/21 03:20:29;;;;;;;;;;;;;;;3.33;75.50;100308.16;130124;1264;108884;-78
2024/04/21 03:23:33;;;;;;;;;;;;;;;3.30;75.44;100308.38;130125;1273;107586;-78
2024/04/21 03:26:37;;;;;;;;;;;;;;;3.23;75.59;100314.17;130162;1265;107630;-78
2024/04/21 03:29:40;;;;;;;;;;;;;;;3.22;75.75;100313.87;130146;1264;107982;-78
2024/04/21 03:32:44;;;;;;;;;;;;;;;3.16;75.85;100311.30;130167;1263;107953;-78
2024/04/21 03:35:58;;;;;;;;;;;;;;;3.10;75.99;100307.29;130055;1265;106539;-78
2024/04/21 03:39:01;;;;;;;;;;;;;;;3.06;76.07;100303.55;130054;1265;108615;-78
2024/04/21 03:42:05;;;;;;;;;;;;;;;3.04;75.96;100304.58;130091;1263;106733;-78
2024/04/21 03:45:09;;;;;;;;;;;;;;;2.97;75.96;100309.40;130060;1265;106809;-77
2024/04/21 03:48:12;;;;;;;;;;;;;;;2.92;76.31;100310.81;130152;1265;106478;-77
2024/04/21 03:51:16;;;;;;;;;;;;;;;2.88;76.40;100306.00;130081;1260;107058;-78
2024/04/21 03:54:20;;;;;;;;;;;;;;;2.88;76.60;100313.35;130096;1273;107575;-78
2024/04/21 03:57:27;;;;;;;;;;;;;;;2.89;76.37;100314.55;130096;1259;106636;-77
2024/04/21 04:00:32;;;;;;;;;;;;;;;2.98;76.25;100314.27;130092;1273;107523;-77
2024/04/21 04:03:40;;;;;;;;;;;;;;;3.03;75.91;100315.52;130116;1273;107709;-78
2024/04/21 04:06:43;;;;;;;;;;;;;;;3.05;76.07;100318.19;130131;1259;108257;-78
2024/04/21 04:09:47;;;;;;;;;;;;;;;3.06;76.01;100320.44;130104;1273;106738;-77
2024/04/21 04:12:50;;;;;;;;;;;;;;;3.07;76.19;100316.66;130096;1264;106455;-77
2024/04/21 04:15:54;;;;;;;;;;;;;;;3.07;75.93;100317.15;130106;1265;106703;-77
2024/04/21 04:18:57;;;;;;;;;;;;;;;3.07;75.87;100321.58;130133;1265;107113;-78
2024/04/21 04:22:01;;;;;;;;;;;;;;;3.04;76.04;100322.13;130153;1266;108068;-78
2024/04/21 04:25:05;;;;;;;;;;;;;;;3.02;75.68;100324.36;130111;1266;107789;-78
2024/04/21 04:28:09;;;;;;;;;;;;;;;3.00;75.65;100325.23;130090;1263;107601;-78
2024/04/21 04:31:13;;;;;;;;;;;;;;;2.98;75.92;100321.17;130111;1259;106350;-77
2024/04/21 04:34:16;;;;;;;;;;;;;;;2.97;75.64;100326.42;130133;1265;106874;-78
2024/04/21 04:37:20;;;;;;;;;;;;;;;2.99;75.89;100322.66;130119;1266;106364;-78
2024/04/21 04:40:24;;;;;;;;;;;;;;;2.96;75.74;100324.05;130105;1265;108670;-78
2024/04/21 04:43:28;;;;;;;;;;;;;;;2.95;75.81;100323.95;130061;1273;108720;-77
2024/04/21 04:46:31;;;;;;;;;;;;;;;2.96;75.78;100325.31;130071;1264;108463;-78
2024/04/21 04:49:35;;;;;;;;;;;;;;;2.99;75.71;100328.96;130060;1265;107850;-78
2024/04/21 04:52:38;;;;;;;;;;;;;;;3.03;75.84;100329.58;130116;1265;107766;-77
2024/04/21 04:55:44;;;;;;;;;;;;;;;3.09;75.72;100330.25;130143;1273;106504;-78
2024/04/21 04:58:47;;;;;;;;;;;;;;;3.13;75.31;100340.83;130191;1263;107404;-77
2024/04/21 05:01:51;;;;;;;;;;;;;;;3.16;75.44;100343.31;130038;1263;106305;-78
2024/04/21 05:04:55;;;;;;;;;;;;;;;3.12;75.34;100341.24;130057;1266;108709;-78
2024/04/21 05:07:58;;;;;;;;;;;;;;;3.08;75.66;100340.12;130053;1263;107780;-77
2024/04/21 05:11:02;;;;;;;;;;;;;;;3.08;75.83;100340.27;130086;1264;107310;-79
2024/04/21 05:14:05;;;;;;;;;;;;;;;3.12;75.92;100340.75;130026;1266;107648;-80
2024/04/21 05:17:09;;;;;;;;;;;;;;;3.19;75.99;100339.79;130036;1265;108828;-79
2024/04/21 05:20:13;;;;;;;;;;;;;;;3.21;75.71;100339.82;130043;1265;106404;-78
2024/04/21 05:23:16;;;;;;;;;;;;;;;3.19;75.85;100334.65;130318;1266;107714;-78
2024/04/21 05:26:22;;;;;;;;;;;;;;;3.19;75.65;100336.80;130043;1278;108430;-78
2024/04/21 05:29:26;;;;;;;;;;;;;;;3.15;75.64;100339.65;129969;1274;108642;-79
2024/04/21 05:32:29;;;;;;;;;;;;;;;3.20;75.67;100340.93;130012;1274;106340;-77
2024/04/21 05:35:34;;;;;;;;;;;;;;;3.30;75.50;100341.85;130031;1264;107651;-78
2024/04/21 05:38:38;;;;;;;;;;;;;;;3.39;75.56;100345.23;130043;1265;108832;-78
2024/04/21 05:41:41;;;;;;;;;;;;;;;3.48;75.30;100352.38;130020;1264;108467;-78
2024/04/21 05:44:45;;;;;;;;;;;;;;;3.54;75.01;100356.89;130078;1259;106747;-79
2024/04/21 05:47:49;;;;;;;;;;;;;;;3.52;74.95;100360.02;130047;1265;108467;-78
2024/04/21 05:50:52;;;;;;;;;;;;;;;3.50;74.68;100360.51;130028;1266;107285;-78
2024/04/21 05:53:56;;;;;;;;;;;;;;;3.51;74.92;100360.05;130269;1263;107608;-78
2024/04/21 05:56:59;;;;;;;;;;;;;;;3.55;75.04;100362.98;130282;1262;107527;-79
2024/04/21 06:00:03;;;;;;;;;;;;;;;3.60;74.73;100361.91;130028;1272;108703;-78
2024/04/21 06:03:08;;;;;;;;;;;;;;;3.63;74.91;100364.34;130022;1262;107634;-79
2024/04/21 06:06:13;;;;;;;;;;;;;;;3.71;74.75;100358.51;130181;1273;107796;-77
2024/04/21 06:09:17;;;;;;;;;;;;;;;3.81;74.92;100359.24;130371;1270;108901;-77
2024/04/21 06:12:22;;;;;;;;;;;;;;;3.89;74.95;100358.13;130483;1263;106350;-77
2024/04/21 06:15:26;;;;;;;;;;;;;;;3.92;74.07;100362.88;130354;1265;106682;-77
2024/04/21 06:18:30;;;;;;;;;;;;;;;3.90;73.93;100363.17;130298;1263;107243;-76
2024/04/21 06:21:34;;;;;;;;;;;;;;;3.98;74.51;100364.61;130268;1264;108683;-81
2024/04/21 06:24:38;;;;;;;;;;;;;;;4.13;74.15;100364.91;130243;1263;107498;-78
2024/04/21 06:27:41;;;;;;;;;;;;;;;4.22;73.55;100364.66;130170;1263;106762;-77
2024/04/21 06:30:45;;;;;;;;;;;;;;;4.29;73.37;100360.98;130096;1272;108649;-78
2024/04/21 06:33:49;;;;;;;;;;;;;;;4.39;73.78;100356.90;130302;1263;106482;-79
2024/04/21 06:36:52;;;;;;;;;;;;;;;4.50;73.59;100358.95;130391;1263;107106;-79
2024/04/21 06:39:56;;;;;;;;;;;;;;;4.56;73.52;100356.56;130264;1264;108616;-80
2024/04/21 06:43:00;;;;;;;;;;;;;;;4.56;72.39;100357.46;130434;1263;107303;-77
2024/04/21 06:46:03;;;;;;;;;;;;;;;4.52;72.96;100359.48;130414;1270;106656;-78
2024/04/21 06:49:07;;;;;;;;;;;;;;;4.63;73.45;100352.38;130217;1263;107750;-77
2024/04/21 06:52:10;;;;;;;;;;;;;;;4.69;73.18;100354.69;130282;1266;106498;-77
2024/04/21 06:55:14;;;;;;;;;;;;;;;4.74;73.32;100354.54;130316;1271;106485;-78
2024/04/21 06:58:18;;;;;;;;;;;;;;;4.77;73.06;100352.73;130297;1272;107538;-78
2024/04/21 07:01:22;;;;;;;;;;;;;;;4.75;72.88;100355.22;130274;1264;106998;-77
2024/04/21 07:04:26;;;;;;;;;;;;;;;4.71;72.75;100354.20;130028;1273;108399;-77
2024/04/21 07:07:29;;;;;;;;;;;;;;;4.70;72.64;100353.04;130086;1265;106646;-79
2024/04/21 07:10:33;;;;;;;;;;;;;;;4.64;72.74;100351.20;130222;1273;107610;-78
2024/04/21 07:13:36;;;;;;;;;;;;;;;4.66;73.16;100347.73;130264;1269;107684;-77
2024/04/21 07:16:40;;;;;;;;;;;;;;;4.77;73.51;100345.85;130127;1273;106462;-78
2024/04/21 07:19:44;;;;;;;;;;;;;;;4.85;73.32;100345.26;130189;1265;108748;-78
2024/04/21 07:22:47;;;;;;;;;;;;;;;4.84;72.46;100344.27;130215;1269;108036;-79
2024/04/21 07:25:51;;;;;;;;;;;;;;;4.85;72.62;100343.35;130340;1266;108417;-78
2024/04/21 07:28:54;;;;;;;;;;;;;;;4.87;72.74;100342.30;130146;1269;106496;-77
2024/04/21 07:31:58;;;;;;;;;;;;;;;4.94;72.56;100341.23;129836;1263;108570;-77
2024/04/21 07:35:02;;;;;;;;;;;;;;;5.07;72.83;100337.64;130097;1260;106466;-77
2024/04/21 07:38:05;;;;;;;;;;;;;;;5.25;72.56;100335.23;130085;1264;107054;-78
2024/04/21 07:41:09;;;;;;;;;;;;;;;5.35;72.08;100334.97;130058;1273;106559;-77
2024/04/21 07:44:12;;;;;;;;;;;;;;;5.39;72.26;100331.13;130070;1270;106489;-78
2024/04/21 07:47:16;;;;;;;;;;;;;;;5.51;72.57;100339.06;130055;1269;107751;-78
2024/04/21 07:50:19;;;;;;;;;;;;;;;5.64;72.54;100337.67;130105;1261;106351;-78
2024/04/21 07:53:23;;;;;;;;;;;;;;;5.65;71.40;100334.28;130061;1263;106872;-79
2024/04/21 07:56:27;;;;;;;;;;;;;;;5.70;72.62;100336.36;130247;1260;106484;-77
2024/04/21 07:59:31;;;;;;;;;;;;;;;5.78;71.77;100338.38;130126;1273;108746;-76
2024/04/21 08:02:35;;;;;;;;;;;;;;;5.76;71.80;100336.02;130217;1260;107557;-77
2024/04/21 08:05:38;;;;;;;;;;;;;;;5.76;71.85;100333.45;130081;1260;106651;-77
2024/04/21 08:08:43;;;;;;;;;;;;;;;5.81;72.00;100335.98;130121;1270;107668;-77
2024/04/21 08:11:47;;;;;;;;;;;;;;;5.86;71.27;100340.04;130259;1264;107295;-84
2024/04/21 08:14:50;;;;;;;;;;;;;;;6.00;71.41;100335.65;130346;1263;107444;-82
2024/04/21 08:17:54;;;;;;;;;;;;;;;6.15;71.05;100331.77;130308;1261;106869;-86
2024/04/21 08:20:58;;;;;;;;;;;;;;;6.37;71.14;100332.34;130241;1267;107540;-85
2024/04/21 08:24:01;;;;;;;;;;;;;;;6.64;71.86;100329.77;130168;1261;108608;-83
2024/04/21 08:27:05;;;;;;;;;;;;;;;6.87;70.05;100330.73;130142;1263;108709;-84
2024/04/21 08:30:09;;;;;;;;;;;;;;;6.94;69.62;100335.58;130182;1263;106614;-86
2024/04/21 08:33:13;;;;;;;;;;;;;;;6.92;68.82;100331.20;130430;1261;107715;-86
2024/04/21 08:36:16;;;;;;;;;;;;;;;6.99;68.45;100332.05;130231;1260;106183;-84
2024/04/21 08:39:20;;;;;;;;;;;;;;;6.96;68.14;100338.40;130435;1261;108407;-85
2024/04/21 08:42:27;;;;;;;;;;;;;;;6.92;69.22;100333.52;130264;1264;107722;-85
2024/04/21 08:45:33;;;;;;;;;;;;;;;6.99;69.29;100336.42;130409;1263;106913;-85
2024/04/21 08:48:37;;;;;;;;;;;;;;;7.14;69.37;100338.16;130349;1273;105629;-83
2024/04/21 08:51:41;;;;;;;;;;;;;;;7.27;69.10;100341.65;130359;1264;107080;-86
2024/04/21 08:54:46;;;;;;;;;;;;;;;7.32;68.42;100341.48;130343;1263;106659;-84
2024/04/21 08:57:50;;;;;;;;;;;;;;;7.31;68.23;100343.52;130440;1263;108970;-82
2024/04/21 09:00:56;;;;;;;;;;;;;;;7.36;69.06;100344.86;130471;1261;108387;-82
2024/04/21 09:04:00;;;;;;;;;;;;;;;7.53;69.25;100349.23;130474;1273;106321;-82
2024/04/21 09:07:04;;;;;;;;;;;;;;;7.61;67.78;100345.68;130312;1261;108724;-84
2024/04/21 09:10:14;;;;;;;;;;;;;;;7.62;68.87;100345.23;130380;1262;106628;-83
2024/04/21 09:13:17;;;;;;;;;;;;;;;7.72;66.80;100347.80;130532;1263;108894;-83
2024/04/21 09:16:21;;;;;;;;;;;;;;;7.66;67.20;100348.86;130204;1264;106189;-85
2024/04/21 09:19:25;;;;;;;;;;;;;;;7.63;66.34;100341.64;130276;1263;107120;-84
2024/04/21 09:22:28;;;;;;;;;;;;;;;7.70;67.47;100341.20;130300;1261;107086;-85
2024/04/21 09:25:32;;;;;;;;;;;;;;;7.76;66.75;100338.63;130200;1264;106541;-85
2024/04/21 09:28:35;;;;;;;;;;;;;;;7.77;67.17;100336.39;130197;1263;107693;-84
2024/04/21 09:31:39;;;;;;;;;;;;;;;7.73;65.59;100339.78;130231;1264;107577;-84
2024/04/21 09:34:43;;;;;;;;;;;;;;;7.67;65.47;100340.05;130129;1264;107732;-84
2024/04/21 09:37:46;;;;;;;;;;;;;;;7.63;65.29;100341.14;130346;1264;108722;-85
2024/04/21 09:40:54;;;;;;;;;;;;;;;7.64;65.17;100333.42;130310;1260;107253;-86
2024/04/21 09:43:59;;;;;;;;;;;;;;;7.70;66.13;100333.12;130736;1259;107119;-86
2024/04/21 09:47:02;;;;;;;;;;;;;;;7.75;65.65;100329.95;130533;1260;108912;-86
2024/04/21 09:50:08;;;;;;;;;;;;;;;7.81;65.87;100325.54;130554;1259;106403;-74
2024/04/21 09:53:12;;;;;;;;;;;;;;;7.85;65.55;100321.67;130150;1263;107676;-73
2024/04/21 09:56:19;;;;;;;;;;;;;;;7.88;65.03;100326.06;130359;1272;108637;-72
2024/04/21 09:59:23;;;;;;;;;;;;;;;7.84;63.96;100323.17;130266;1264;107707;-71
2024/04/21 10:02:27;;;;;;;;;;;;;;;7.81;64.40;100319.21;130111;1264;107115;-71
2024/04/21 10:05:31;;;;;;;;;;;;;;;7.88;65.43;100319.10;130058;1271;107921;-72
2024/04/21 10:08:36;;;;;;;;;;;;;;;8.02;65.53;100317.05;130194;1264;109088;-73
2024/04/21 10:11:40;;;;;;;;;;;;;;;8.03;64.56;100321.70;130153;1259;108548;-71
2024/04/21 10:14:43;;;;;;;;;;;;;;;7.94;64.22;100319.70;129919;1263;107140;-72
2024/04/21 10:17:55;;;;;;;;;;;;;;;7.85;64.27;100316.70;130075;1260;106387;-71
2024/04/21 10:20:58;;;;;;;;;;;;;;;7.82;64.11;100315.34;130104;1273;106573;-72
2024/04/21 10:24:03;;;;;;;;;;;;;;;7.80;64.49;100314.52;130115;1264;107210;-71
2024/04/21 10:27:07;;;;;;;;;;;;;;;7.78;63.92;100324.27;131984;1259;108723;-72
2024/04/21 10:30:14;;;;;;;;;;;;;;;7.73;64.03;100315.99;130294;1264;109358;-72
2024/04/21 10:33:27;;;;;;;;;;;;;;;7.78;64.37;100311.81;130192;1262;106962;-72
2024/04/21 10:36:39;;;;;;;;;;;;;;;7.85;64.42;100314.42;130348;1259;107075;-71
2024/04/21 10:39:43;;;;;;;;;;;;;;;7.82;64.29;100314.52;131517;1259;107289;-73
2024/04/21 10:42:53;;;;;;;;;;;;;;;7.71;64.41;100314.95;130991;1263;107801;-72
2024/04/21 10:45:58;;;;;;;;;;;;;;;7.62;64.85;100316.59;130331;1264;108693;-71
2024/04/21 10:49:03;;;;;;;;;;;;;;;7.60;65.37;100321.00;130603;1260;107527;-72
2024/04/21 10:52:07;;;;;;;;;;;;;;;7.59;65.35;100317.23;130082;1259;107117;-72
2024/04/21 10:55:11;;;;;;;;;;;;;;;7.62;64.93;100316.95;130001;1263;107468;-82
2024/04/21 10:58:14;;;;;;;;;;;;;;;7.58;64.82;100319.07;130291;1263;108780;-82
2024/04/21 11:01:19;;;;;;;;;;;;;;;7.63;65.37;100322.18;130180;1260;108783;-81
2024/04/21 11:04:23;;;;;;;;;;;;;;;7.64;64.81;100319.29;130414;1259;108105;-82
2024/04/21 11:07:26;;;;;;;;;;;;;;;7.62;65.07;100321.92;131119;1260;108713;-82
2024/04/21 11:10:30;;;;;;;;;;;;;;;7.57;64.52;100323.05;130563;1264;107527;-82
2024/04/21 11:13:34;;;;;;;;;;;;;;;7.55;64.53;100327.67;130407;1263;106761;-73
2024/04/21 11:16:37;;;;;;;;;;;;;;;7.58;65.06;100325.79;130145;1260;109052;-81
2024/04/21 11:19:41;;;;;;;;;;;;;;;7.59;64.89;100326.73;130272;1264;108762;-83
2024/04/21 11:22:45;;;;;;;;;;;;;;;7.56;64.67;100332.54;130291;1260;108631;-82
2024/04/21 11:25:49;;;;;;;;;;;;;;;7.52;64.76;100328.83;130135;1263;106442;-81
2024/04/21 11:28:56;;;;;;;;;;;;;;;7.49;65.24;100328.48;130282;1264;107580;-81
2024/04/21 11:32:00;;;;;;;;;;;;;;;7.56;65.14;100332.89;130202;1264;108636;-81
2024/04/21 11:35:04;;;;;;;;;;;;;;;7.56;64.20;100335.67;130201;1264;108368;-83
2024/04/21 11:38:08;;;;;;;;;;;;;;;7.55;64.33;100334.76;130218;1261;106918;-81
2024/04/21 11:41:13;;;;;;;;;;;;;;;7.55;63.69;100334.74;130193;1264;108751;-80
2024/04/21 11:44:18;;;;;;;;;;;;;;;7.50;63.04;100335.86;130220;1264;107792;-81
2024/04/21 11:47:22;;;;;;;;;;;;;;;7.50;63.30;100334.61;130426;1263;107140;-85
2024/04/21 11:50:26;;;;;;;;;;;;;;;7.50;63.23;100338.39;130422;1264;106998;-86
2024/04/21 11:53:30;;;;;;;;;;;;;;;7.46;62.76;100338.11;130352;1260;107594;-87
2024/04/21 11:56:34;;;;;;;;;;;;;;;7.42;62.94;100339.33;130372;1259;107906;-89
2024/04/21 11:59:38;;;;;;;;;;;;;;;7.42;63.19;100337.38;130459;1263;107350;-86
2024/04/21 12:02:41;;;;;;;;;;;;;;;7.42;62.88;100333.83;130442;1263;107760;-86
2024/04/21 12:05:46;;;;;;;;;;;;;;;7.45;63.40;100334.87;130554;1259;106560;-88
2024/04/21 12:08:50;;;;;;;;;;;;;;;7.51;63.52;100335.98;130466;1259;106670;-85
2024/04/21 12:11:54;;;;;;;;;;;;;;;7.51;62.57;100341.95;130349;1259;107184;-88
2024/04/21 12:14:57;;;;;;;;;;;;;;;7.51;63.61;100339.70;130501;1264;106795;-87
2024/04/21 12:18:07;;;;;;;;;;;;;;;7.53;63.08;100339.66;130437;1263;107675;-87
2024/04/21 12:21:10;;;;;;;;;;;;;;;7.57;63.50;100336.91;130850;1259;107283;-80
2024/04/21 12:24:14;;;;;;;;;;;;;;;7.56;62.63;100340.12;130174;1259;106314;-83
2024/04/21 12:27:18;;;;;;;;;;;;;;;7.57;62.93;100342.73;130762;1259;109020;-82
2024/04/21 12:30:22;;;;;;;;;;;;;;;7.60;62.80;100340.86;130319;1263;108838;-83
2024/04/21 12:33:26;;;;;;;;;;;;;;;7.64;62.97;100346.51;130344;1264;108327;-87
2024/04/21 12:36:30;;;;;;;;;;;;;;;7.63;62.56;100341.45;130280;1260;107372;-87
2024/04/21 12:39:35;;;;;;;;;;;;;;;7.64;63.02;100344.22;130190;1259;107826;-84
2024/04/21 12:42:39;;;;;;;;;;;;;;;7.61;62.53;100342.20;130136;1260;106435;-84
2024/04/21 12:45:42;;;;;;;;;;;;;;;7.57;62.54;100346.80;130253;1264;107725;-85
2024/04/21 12:48:46;;;;;;;;;;;;;;;7.53;62.23;100348.69;130288;1264;107812;-83
2024/04/21 12:51:49;;;;;;;;;;;;;;;7.43;62.36;100349.21;130151;1264;107262;-83
2024/04/21 12:54:53;;;;;;;;;;;;;;;7.42;62.23;100347.65;130212;1263;107695;-83
2024/04/21 12:57:57;;;;;;;;;;;;;;;7.45;62.63;100347.27;130142;1264;106751;-83
2024/04/21 13:01:03;;;;;;;;;;;;;;;7.47;62.25;100349.20;130184;1263;106917;-84
2024/04/21 13:04:07;;;;;;;;;;;;;;;7.47;62.02;100345.64;130182;1263;107780;-83
2024/04/21 13:07:11;;;;;;;;;;;;;;;7.46;62.49;100343.28;130385;1264;108559;-84
2024/04/21 13:10:16;;;;;;;;;;;;;;;7.47;61.91;100344.09;130249;1264;107747;-84
2024/04/21 13:13:19;;;;;;;;;;;;;;;7.46;62.49;100340.20;130195;1260;106935;-84
2024/04/21 13:16:23;;;;;;;;;;;;;;;7.46;62.25;100337.74;130301;1264;106948;-86
2024/04/21 13:19:28;;;;;;;;;;;;;;;7.46;61.94;100337.77;130438;1260;107223;-85
2024/04/21 13:22:33;;;;;;;;;;;;;;;7.40;61.69;100338.63;130429;1259;108557;-84
2024/04/21 13:25:37;;;;;;;;;;;;;;;7.38;62.23;100338.67;130452;1264;108436;-83
2024/04/21 13:28:40;;;;;;;;;;;;;;;7.39;61.47;100341.25;130389;1262;106949;-84
2024/04/21 13:31:44;;;;;;;;;;;;;;;7.38;62.11;100340.45;130258;1262;107407;-84
2024/04/21 13:34:47;;;;;;;;;;;;;;;7.42;62.14;100339.04;130170;1264;107579;-83
2024/04/21 13:37:51;;;;;;;;;;;;;;;7.47;62.06;100338.02;130149;1260;106726;-84
2024/04/21 13:41:00;;;;;;;;;;;;;;;7.49;62.00;100332.73;130217;1261;108822;-84
2024/04/21 13:44:04;;;;;;;;;;;;;;;7.46;61.71;100337.02;130349;1265;106795;-85
2024/04/21 13:47:08;;;;;;;;;;;;;;;7.41;61.65;100335.38;130258;1264;106600;-85
2024/04/21 13:50:11;;;;;;;;;;;;;;;7.42;62.13;100335.49;130338;1265;106698;-85
2024/04/21 13:53:15;;;;;;;;;;;;;;;7.42;62.28;100340.05;130301;1260;106654;-82
2024/04/21 13:56:19;;;;;;;;;;;;;;;7.44;62.62;100340.24;130580;1264;107618;-83
2024/04/21 13:59:22;;;;;;;;;;;;;;;7.49;62.25;100342.88;130205;1263;108643;-86
2024/04/21 14:02:28;;;;;;;;;;;;;;;7.49;61.99;100347.08;130283;1259;106335;-85
2024/04/21 14:05:31;;;;;;;;;;;;;;;7.42;61.82;100349.41;130583;1259;108915;-84
2024/04/21 14:08:36;;;;;;;;;;;;;;;7.33;62.05;100351.58;130210;1259;106611;-84
2024/04/21 14:11:40;;;;;;;;;;;;;;;7.27;62.10;100349.81;130196;1263;107724;-84
2024/04/21 14:14:44;;;;;;;;;;;;;;;7.24;62.47;100352.02;130027;1263;107724;-84
2024/04/21 14:17:48;;;;;;;;;;;;;;;7.26;62.43;100354.14;129989;1259;106534;-82
2024/04/21 14:20:51;;;;;;;;;;;;;;;7.26;62.48;100350.42;130142;1263;106410;-83
2024/04/21 14:23:55;;;;;;;;;;;;;;;7.21;62.20;100355.97;130233;1263;107541;-75
2024/04/21 14:26:59;;;;;;;;;;;;;;;7.09;62.40;100358.95;130036;1260;106219;-77
2024/04/21 14:30:03;;;;;;;;;;;;;;;7.03;62.50;100356.82;129947;1264;106436;-72
2024/04/21 14:33:07;;;;;;;;;;;;;;;6.97;62.98;100359.20;130202;1264;109167;-74
2024/04/21 14:36:10;;;;;;;;;;;;;;;6.95;62.64;100357.62;130090;1264;108743;-74
2024/04/21 14:39:14;;;;;;;;;;;;;;;6.93;62.61;100357.97;130046;1264;107213;-74
2024/04/21 14:42:17;;;;;;;;;;;;;;;6.92;62.91;100357.50;130061;1259;109296;-75
2024/04/21 14:45:21;;;;;;;;;;;;;;;6.91;62.94;100359.17;130059;1264;107033;-73
2024/04/21 14:48:25;;;;;;;;;;;;;;;6.90;63.02;100356.45;129956;1260;125323;-73
2024/04/21 14:51:29;;;;;;;;;;;;;;;6.87;62.86;100358.27;130042;1264;107827;-74
2024/04/21 14:54:32;;;;;;;;;;;;;;;6.87;63.31;100360.75;130153;1259;108751;-73
2024/04/21 14:57:36;;;;;;;;;;;;;;;6.90;63.24;100361.09;130142;1264;106503;-77
2024/04/21 15:00:39;;;;;;;;;;;;;;;6.94;63.70;100363.60;130293;1263;108880;-79
2024/04/21 15:03:43;;;;;;;;;;;;;;;6.94;63.61;100365.36;130080;1264;106559;-78
2024/04/21 15:06:47;;;;;;;;;;;;;;;6.95;63.46;100363.49;130173;1263;108151;-77
2024/04/21 15:09:51;;;;;;;;;;;;;;;6.95;63.42;100363.09;130087;1265;108639;-77
2024/04/21 15:12:56;;;;;;;;;;;;;;;6.94;63.55;100363.19;130158;1260;108706;-75
2024/04/21 15:15:59;;;;;;;;;;;;;;;6.94;63.95;100365.36;130161;1259;106711;-77
2024/04/21 15:19:03;;;;;;;;;;;;;;;6.97;63.72;100367.16;130111;1259;107537;-72
2024/04/21 15:22:08;;;;;;;;;;;;;;;7.02;64.00;100363.05;129971;1264;107553;-73
2024/04/21 15:25:11;;;;;;;;;;;;;;;6.96;64.61;100366.16;129900;1264;108232;-71
2024/04/21 15:28:15;;;;;;;;;;;;;;;6.91;64.81;100361.89;130310;1262;108335;-72
2024/04/21 15:31:18;;;;;;;;;;;;;;;6.90;64.39;100360.71;130161;1262;106474;-73
2024/04/21 15:34:23;;;;;;;;;;;;;;;6.95;64.87;100358.54;130297;1262;108737;-73